createdAt,value
2023-12-20T00:01:33.379Z,92.91
2023-12-20T00:04:02.440Z,93.38
2023-12-20T00:06:30.107Z,92.67
2023-12-20T00:08:58.932Z,93.00
2023-12-20T00:11:26.672Z,93.23
2023-12-20T00:13:54.268Z,93.13
2023-12-20T00:16:21.835Z,93.17
2023-12-20T00:18:49.537Z,93.35
2023-12-20T00:21:18.470Z,93.11
2023-12-20T00:23:46.022Z,93.37
2023-12-20T00:26:13.749Z,93.88
2023-12-20T00:28:41.332Z,93.51
2023-12-20T00:31:09.000Z,93.46
2023-12-20T00:33:36.678Z,93.50
2023-12-20T00:36:04.752Z,93.86
2023-12-20T00:38:33.652Z,94.03
2023-12-20T00:41:01.195Z,93.60
2023-12-20T00:43:28.830Z,94.20
2023-12-20T00:45:56.564Z,94.18
2023-12-20T00:48:24.195Z,94.18
2023-12-20T00:50:51.789Z,94.07
2023-12-20T00:53:19.348Z,94.26
2023-12-20T00:55:48.402Z,94.45
2023-12-20T00:58:17.049Z,94.93
2023-12-20T01:00:45.122Z,94.67
2023-12-20T01:03:12.893Z,95.08
2023-12-20T01:05:40.531Z,94.62
2023-12-20T01:08:08.601Z,94.29
2023-12-20T01:10:36.127Z,94.23
2023-12-20T01:13:05.433Z,94.43
2023-12-20T01:15:33.016Z,94.99
2023-12-20T01:18:00.604Z,94.40
2023-12-20T01:20:28.294Z,94.33
2023-12-20T01:22:55.864Z,94.22
2023-12-20T01:25:23.438Z,94.66
2023-12-20T01:27:51.098Z,94.64
2023-12-20T01:30:20.233Z,94.67
2023-12-20T01:32:47.963Z,95.30
2023-12-20T01:35:15.966Z,95.50
2023-12-20T01:37:43.817Z,95.42
2023-12-20T01:40:12.644Z,95.38
2023-12-20T01:42:40.343Z,95.55
2023-12-20T01:45:08.594Z,95.81
2023-12-20T01:47:38.312Z,95.80
2023-12-20T01:50:09.244Z,96.31
2023-12-20T01:52:37.401Z,95.93
2023-12-20T01:55:12.067Z,95.81
2023-12-20T01:57:39.755Z,96.17
2023-12-20T02:00:10.422Z,96.68
2023-12-20T02:02:40.478Z,96.57
2023-12-20T02:05:08.819Z,97.05
2023-12-20T02:07:36.623Z,96.86
2023-12-20T02:10:04.992Z,96.84
2023-12-20T02:12:32.678Z,97.06
2023-12-20T02:15:00.267Z,97.78
2023-12-20T02:17:28.276Z,97.06
2023-12-20T02:19:57.384Z,97.48
2023-12-20T02:22:26.715Z,97.62
2023-12-20T02:24:54.454Z,97.35
2023-12-20T02:27:22.887Z,96.97
2023-12-20T02:29:50.508Z,97.57
2023-12-20T02:32:18.824Z,97.75
2023-12-20T02:34:46.679Z,97.43
2023-12-20T02:37:14.357Z,97.52
2023-12-20T02:39:43.367Z,97.63
2023-12-20T02:42:11.002Z,98.56
2023-12-20T02:44:38.563Z,97.90
2023-12-20T02:47:06.405Z,97.88
2023-12-20T02:49:34.052Z,98.24
2023-12-20T02:52:01.772Z,98.25
2023-12-20T02:54:29.326Z,97.95
2023-12-20T02:56:58.250Z,98.41
2023-12-20T02:59:25.790Z,98.36
2023-12-20T03:01:53.461Z,98.17
2023-12-20T03:04:21.234Z,98.26
2023-12-20T03:06:49.034Z,99.07
2023-12-20T03:09:16.649Z,98.78
2023-12-20T03:11:44.220Z,98.66
2023-12-20T03:14:13.176Z,98.80
2023-12-20T03:16:40.740Z,99.09
2023-12-20T03:19:08.277Z,99.25
2023-12-20T03:21:35.827Z,99.12
2023-12-20T03:24:03.685Z,99.54
2023-12-20T03:26:31.287Z,99.46
2023-12-20T03:28:58.803Z,99.02
2023-12-20T03:31:27.788Z,99.30
2023-12-20T03:33:55.555Z,99.86
2023-12-20T03:36:23.140Z,99.41
2023-12-20T03:38:50.769Z,99.31
2023-12-20T03:41:18.310Z,99.66
2023-12-20T03:43:45.831Z,100.00
2023-12-20T03:46:13.431Z,98.86
2023-12-20T03:48:42.339Z,99.24
2023-12-20T03:51:09.968Z,98.97
2023-12-20T03:53:37.501Z,99.75
2023-12-20T03:56:05.819Z,100.00
2023-12-20T03:58:33.420Z,99.20
2023-12-20T04:01:01.094Z,99.81
2023-12-20T04:03:28.877Z,99.40
2023-12-20T04:05:57.816Z,99.33
2023-12-20T04:08:25.465Z,99.74
2023-12-20T04:10:53.114Z,99.39
2023-12-20T04:13:20.759Z,100.00
2023-12-20T04:15:49.109Z,99.45
2023-12-20T04:18:16.743Z,100.00
2023-12-20T04:20:44.294Z,99.87
2023-12-20T04:23:13.185Z,99.84
2023-12-20T04:25:40.751Z,99.93
2023-12-20T04:28:08.349Z,99.59
2023-12-20T04:30:36.250Z,99.18
2023-12-20T04:33:04.317Z,99.76
2023-12-20T04:35:31.913Z,99.01
2023-12-20T04:37:59.686Z,99.98
2023-12-20T04:40:28.728Z,99.85
2023-12-20T04:42:56.393Z,99.50
2023-12-20T04:45:24.976Z,99.88
2023-12-20T04:47:52.753Z,99.53
2023-12-20T04:50:21.081Z,99.15
2023-12-20T04:52:48.733Z,99.07
2023-12-20T04:55:16.789Z,98.87
2023-12-20T04:57:46.028Z,99.11
2023-12-20T05:00:16.372Z,98.49
2023-12-20T05:02:43.961Z,99.22
2023-12-20T05:05:11.858Z,98.72
2023-12-20T05:07:39.566Z,99.12
2023-12-20T05:10:09.478Z,98.48
2023-12-20T05:12:37.089Z,97.81
2023-12-20T05:15:07.763Z,97.81
2023-12-20T05:17:35.872Z,98.07
2023-12-20T05:20:04.033Z,97.46
2023-12-20T05:22:31.661Z,97.95
2023-12-20T05:24:59.285Z,97.92
2023-12-20T05:27:27.091Z,98.28
2023-12-20T05:29:58.648Z,98.20
2023-12-20T05:32:27.813Z,97.78
2023-12-20T05:34:55.438Z,97.65
2023-12-20T05:37:23.012Z,97.26
2023-12-20T05:39:50.688Z,97.35
2023-12-20T05:42:18.256Z,97.41
2023-12-20T05:44:45.801Z,97.81
2023-12-20T05:47:13.343Z,97.60
2023-12-20T05:49:42.399Z,98.17
2023-12-20T05:52:10.076Z,97.70
2023-12-20T05:54:37.932Z,97.76
2023-12-20T05:57:06.311Z,98.09
2023-12-20T05:59:33.899Z,97.96
2023-12-20T06:02:01.485Z,98.66
2023-12-20T06:04:29.126Z,98.38
2023-12-20T06:06:57.179Z,98.51
2023-12-20T06:09:24.880Z,97.86
2023-12-20T06:11:52.626Z,98.19
2023-12-20T06:14:20.245Z,98.52
2023-12-20T06:16:47.843Z,98.31
2023-12-20T06:19:15.481Z,98.54
2023-12-20T06:21:45.136Z,98.70
2023-12-20T06:24:14.356Z,98.37
2023-12-20T06:26:41.946Z,98.09
2023-12-20T06:29:09.536Z,97.77
2023-12-20T06:31:37.366Z,97.68
2023-12-20T06:34:05.012Z,98.68
2023-12-20T06:36:32.812Z,97.72
2023-12-20T06:39:00.341Z,98.06
2023-12-20T06:41:29.905Z,98.07
2023-12-20T06:43:57.747Z,97.82
2023-12-20T06:46:25.390Z,97.46
2023-12-20T06:48:53.129Z,97.90
2023-12-20T06:51:21.624Z,97.68
2023-12-20T06:53:49.221Z,98.07
2023-12-20T06:56:19.395Z,98.33
2023-12-20T06:58:48.880Z,97.84
2023-12-20T07:01:17.170Z,98.60
2023-12-20T07:03:45.276Z,98.31
2023-12-20T07:06:12.879Z,98.70
2023-12-20T07:08:41.992Z,97.63
2023-12-20T07:11:09.576Z,97.79
2023-12-20T07:13:37.334Z,97.65
2023-12-20T07:16:06.785Z,97.99
2023-12-20T07:18:34.465Z,97.05
2023-12-20T07:21:02.168Z,97.49
2023-12-20T07:23:29.752Z,98.18
2023-12-20T07:25:57.440Z,98.46
2023-12-20T07:28:26.033Z,97.39
2023-12-20T07:30:53.809Z,98.08
2023-12-20T07:33:23.008Z,98.16
2023-12-20T07:35:53.154Z,98.52
2023-12-20T07:38:21.029Z,97.96
2023-12-20T07:40:48.585Z,97.84
2023-12-20T07:43:16.171Z,98.32
2023-12-20T07:45:43.856Z,97.90
2023-12-20T07:48:11.632Z,97.55
2023-12-20T07:50:40.697Z,97.40
2023-12-20T07:53:08.305Z,97.50
2023-12-20T07:55:35.878Z,97.83
2023-12-20T07:58:03.602Z,97.87
2023-12-20T08:00:31.181Z,97.72
2023-12-20T08:02:58.745Z,97.11
2023-12-20T08:05:26.301Z,98.01
2023-12-20T08:07:55.246Z,97.53
2023-12-20T08:10:22.965Z,97.16
2023-12-20T08:12:50.672Z,97.70
2023-12-20T08:15:18.373Z,97.71
2023-12-20T08:17:46.099Z,97.13
2023-12-20T08:20:17.359Z,97.79
2023-12-20T08:22:47.661Z,97.06
2023-12-20T08:25:17.012Z,97.64
2023-12-20T08:27:44.983Z,97.89
2023-12-20T08:30:13.647Z,97.16
2023-12-20T08:32:41.296Z,97.93
2023-12-20T08:35:10.035Z,98.29
2023-12-20T08:37:38.157Z,98.40
2023-12-20T08:40:06.882Z,98.45
2023-12-20T08:42:35.803Z,98.42
2023-12-20T08:45:05.374Z,98.17
2023-12-20T08:47:32.998Z,98.26
2023-12-20T08:50:01.420Z,97.64
2023-12-20T08:52:30.277Z,97.29
2023-12-20T08:54:58.757Z,96.98
2023-12-20T08:57:26.481Z,98.02
2023-12-20T08:59:55.334Z,97.40
2023-12-20T09:02:23.052Z,97.33
2023-12-20T09:04:50.815Z,97.28
2023-12-20T09:07:25.251Z,97.61
2023-12-20T09:09:53.128Z,97.71
2023-12-20T09:12:21.457Z,97.97
2023-12-20T09:14:49.374Z,97.75
2023-12-20T09:17:18.478Z,97.84
2023-12-20T09:19:46.705Z,97.63
2023-12-20T09:22:14.723Z,96.75
2023-12-20T09:24:42.284Z,97.40
2023-12-20T09:27:09.873Z,98.45
2023-12-20T09:29:37.573Z,98.36
2023-12-20T09:32:05.831Z,97.80
2023-12-20T09:34:35.058Z,97.60
2023-12-20T09:37:04.102Z,97.96
2023-12-20T09:39:32.842Z,97.47
2023-12-20T09:42:03.540Z,98.46
2023-12-20T09:44:31.239Z,98.01
2023-12-20T09:46:59.640Z,97.44
2023-12-20T09:49:29.649Z,97.50
2023-12-20T09:51:58.917Z,96.93
2023-12-20T09:54:27.574Z,97.01
2023-12-20T09:56:55.225Z,96.66
2023-12-20T09:59:22.852Z,94.75
2023-12-20T10:01:50.582Z,94.72
2023-12-20T10:04:29.128Z,94.86
2023-12-20T10:06:59.559Z,93.85
2023-12-20T10:09:27.296Z,93.36
2023-12-20T10:11:57.469Z,93.69
2023-12-20T10:14:25.424Z,92.27
2023-12-20T10:16:53.091Z,92.12
2023-12-20T10:19:21.719Z,91.27
2023-12-20T10:21:49.385Z,91.71
2023-12-20T10:24:20.266Z,90.96
2023-12-20T10:26:47.817Z,90.20
2023-12-20T10:29:15.621Z,89.71
2023-12-20T10:31:43.859Z,88.97
2023-12-20T10:34:11.864Z,88.92
2023-12-20T10:36:39.506Z,89.56
2023-12-20T10:39:08.165Z,89.44
2023-12-20T10:41:42.209Z,88.93
2023-12-20T10:44:11.000Z,87.48
2023-12-20T10:46:39.305Z,87.61
2023-12-20T10:49:07.609Z,88.44
2023-12-20T10:51:36.301Z,87.90
2023-12-20T10:54:04.278Z,87.21
2023-12-20T10:56:34.582Z,86.13
2023-12-20T10:59:06.208Z,87.18
2023-12-20T11:01:33.938Z,84.22
2023-12-20T11:04:02.250Z,85.10
2023-12-20T11:06:36.590Z,84.48
2023-12-20T11:09:13.719Z,84.19
2023-12-20T11:12:08.487Z,83.12
2023-12-20T11:14:42.182Z,80.98
2023-12-20T11:17:10.681Z,82.71
2023-12-20T11:19:39.676Z,81.08
2023-12-20T11:22:08.574Z,81.99
2023-12-20T11:24:38.865Z,81.48
2023-12-20T11:27:06.755Z,83.59
2023-12-20T11:29:34.864Z,82.18
2023-12-20T11:32:30.698Z,81.64
2023-12-20T11:35:00.633Z,82.24
2023-12-20T11:37:32.888Z,80.28
2023-12-20T11:40:03.457Z,81.98
2023-12-20T11:42:35.178Z,81.94
2023-12-20T11:45:05.442Z,82.02
2023-12-20T11:47:34.537Z,81.64
2023-12-20T11:50:04.987Z,81.93
2023-12-20T11:52:32.786Z,81.70
2023-12-20T11:55:00.538Z,82.57
2023-12-20T11:57:28.993Z,81.38
2023-12-20T11:59:57.102Z,81.58
2023-12-20T12:02:25.266Z,82.54
2023-12-20T12:04:54.244Z,83.47
2023-12-20T12:07:22.471Z,82.88
2023-12-20T12:09:50.436Z,81.70
2023-12-20T12:12:19.039Z,82.20
2023-12-20T12:14:46.940Z,81.81
2023-12-20T12:17:14.782Z,81.13
2023-12-20T12:19:42.880Z,80.67
2023-12-20T12:22:16.036Z,80.52
2023-12-20T12:24:45.089Z,81.16
2023-12-20T12:27:13.735Z,81.47
2023-12-20T12:29:41.551Z,81.57
2023-12-20T12:32:10.508Z,82.00
2023-12-20T12:34:38.875Z,81.55
2023-12-20T12:37:06.531Z,80.62
2023-12-20T12:39:36.340Z,81.01
2023-12-20T12:42:04.021Z,80.91
2023-12-20T12:44:31.582Z,80.83
2023-12-20T12:46:59.175Z,80.29
2023-12-20T12:49:26.807Z,81.88
2023-12-20T12:51:55.326Z,81.28
2023-12-20T12:54:24.600Z,81.35
2023-12-20T12:56:54.983Z,81.93
2023-12-20T12:59:22.528Z,81.43
2023-12-20T13:01:50.232Z,79.39
2023-12-20T13:04:17.890Z,79.76
2023-12-20T13:06:45.595Z,80.09
2023-12-20T13:09:13.190Z,81.72
2023-12-20T13:11:41.016Z,82.10
2023-12-20T13:14:11.914Z,82.84
2023-12-20T13:16:39.557Z,82.83
2023-12-20T13:19:07.499Z,83.07
2023-12-20T13:21:35.268Z,82.74
2023-12-20T13:24:02.838Z,84.82
2023-12-20T13:26:30.413Z,84.31
2023-12-20T13:28:57.975Z,83.41
2023-12-20T13:31:27.052Z,82.68
2023-12-20T13:33:54.822Z,82.64
2023-12-20T13:36:22.498Z,83.19
2023-12-20T13:38:50.261Z,83.61
2023-12-20T13:41:17.815Z,82.34
2023-12-20T13:43:46.604Z,82.52
2023-12-20T13:46:15.059Z,81.83
2023-12-20T13:48:43.939Z,81.56
2023-12-20T13:51:11.966Z,82.22
2023-12-20T13:53:39.925Z,81.83
2023-12-20T13:56:08.498Z,82.24
2023-12-20T13:58:38.292Z,83.25
2023-12-20T14:01:06.288Z,83.95
2023-12-20T14:03:33.852Z,84.44
2023-12-20T14:06:03.034Z,83.00
2023-12-20T14:08:30.699Z,82.89
2023-12-20T14:10:58.308Z,84.68
2023-12-20T14:13:25.981Z,84.07
2023-12-20T14:15:55.272Z,83.42
2023-12-20T14:18:23.515Z,83.06
2023-12-20T14:20:51.783Z,83.64
2023-12-20T14:23:20.824Z,83.06
2023-12-20T14:25:52.242Z,82.23
2023-12-20T14:28:21.240Z,82.88
2023-12-20T14:30:50.212Z,83.64
2023-12-20T14:33:18.044Z,83.32
2023-12-20T14:35:46.499Z,83.43
2023-12-20T14:38:16.075Z,83.57
2023-12-20T14:40:45.176Z,84.09
2023-12-20T14:43:12.892Z,83.89
2023-12-20T14:45:40.558Z,84.12
2023-12-20T14:48:08.741Z,84.06
2023-12-20T14:50:37.751Z,83.72
2023-12-20T14:53:05.833Z,84.43
2023-12-20T14:55:33.562Z,84.56
2023-12-20T14:58:02.937Z,84.61
2023-12-20T15:00:30.982Z,84.84
2023-12-20T15:02:58.722Z,84.75
2023-12-20T15:05:27.487Z,84.95
2023-12-20T15:07:55.313Z,85.53
2023-12-20T15:10:23.015Z,85.68
2023-12-20T15:12:50.670Z,85.23
2023-12-20T15:15:20.869Z,84.67
2023-12-20T15:17:48.827Z,86.10
2023-12-20T15:20:17.579Z,85.78
2023-12-20T15:22:46.946Z,85.38
2023-12-20T15:25:20.896Z,86.44
2023-12-20T15:27:50.297Z,85.89
2023-12-20T15:30:20.137Z,85.96
2023-12-20T15:32:47.888Z,86.43
2023-12-20T15:35:15.843Z,85.15
2023-12-20T15:37:44.055Z,85.33
2023-12-20T15:40:13.564Z,85.43
2023-12-20T15:42:42.117Z,86.21
2023-12-20T15:45:10.541Z,85.52
2023-12-20T15:47:39.632Z,85.12
2023-12-20T15:50:08.971Z,85.64
2023-12-20T15:52:38.223Z,85.84
2023-12-20T15:55:06.746Z,85.73
2023-12-20T15:57:45.032Z,85.41
2023-12-20T16:00:18.155Z,85.24
2023-12-20T16:02:47.149Z,85.29
2023-12-20T16:05:15.200Z,85.18
2023-12-20T16:07:43.944Z,84.91
2023-12-20T16:10:11.930Z,84.83
2023-12-20T16:12:39.582Z,85.48
2023-12-20T16:15:09.356Z,84.39
2023-12-20T16:17:37.761Z,84.75
2023-12-20T16:20:08.368Z,85.96
2023-12-20T16:22:36.081Z,85.35
2023-12-20T16:25:03.727Z,85.74
2023-12-20T16:27:31.440Z,85.59
2023-12-20T16:29:59.007Z,85.54
2023-12-20T16:32:26.579Z,85.02
2023-12-20T16:34:54.475Z,85.54
2023-12-20T16:37:23.478Z,85.65
2023-12-20T16:39:51.099Z,85.87
2023-12-20T16:42:18.960Z,84.84
2023-12-20T16:44:46.529Z,85.10
2023-12-20T16:47:14.178Z,84.69
2023-12-20T16:49:41.861Z,84.62
2023-12-20T16:52:09.679Z,85.37
2023-12-20T16:54:38.689Z,85.70
2023-12-20T16:57:06.739Z,85.50
2023-12-20T16:59:34.336Z,85.38
2023-12-20T17:02:03.095Z,85.82
2023-12-20T17:04:33.612Z,86.21
2023-12-20T17:07:01.234Z,86.41
2023-12-20T17:09:31.363Z,85.33
2023-12-20T17:12:00.998Z,85.31
2023-12-20T17:14:28.765Z,85.67
2023-12-20T17:16:56.610Z,85.94
2023-12-20T17:19:25.072Z,85.00
2023-12-20T17:21:53.087Z,85.70
2023-12-20T17:24:20.662Z,85.44
2023-12-20T17:26:48.268Z,84.98
2023-12-20T17:29:17.171Z,85.44
2023-12-20T17:31:44.767Z,85.05
2023-12-20T17:34:13.083Z,84.61
2023-12-20T17:36:42.707Z,85.51
2023-12-20T17:39:10.951Z,85.38
2023-12-20T17:41:39.187Z,84.28
2023-12-20T17:44:07.139Z,84.52
2023-12-20T17:46:36.063Z,84.84
2023-12-20T17:49:03.937Z,84.37
2023-12-20T17:51:31.680Z,84.65
2023-12-20T17:54:01.579Z,85.98
2023-12-20T17:56:30.504Z,85.67
2023-12-20T17:58:58.134Z,85.48
2023-12-20T18:01:25.785Z,85.46
2023-12-20T18:03:54.864Z,85.23
2023-12-20T18:06:22.594Z,84.80
2023-12-20T18:08:50.249Z,85.07
2023-12-20T18:11:18.027Z,84.61
2023-12-20T18:13:45.614Z,84.17
2023-12-20T18:16:13.251Z,85.32
2023-12-20T18:18:40.980Z,84.42
2023-12-20T18:21:10.283Z,83.79
2023-12-20T18:23:37.909Z,84.30
2023-12-20T18:26:05.798Z,85.11
2023-12-20T18:28:33.464Z,84.89
2023-12-20T18:31:01.299Z,84.66
2023-12-20T18:33:29.169Z,84.90
2023-12-20T18:35:56.784Z,84.45
2023-12-20T18:38:29.977Z,85.09
2023-12-20T18:40:57.838Z,84.44
2023-12-20T18:43:26.815Z,84.81
2023-12-20T18:45:56.847Z,85.05
2023-12-20T18:48:26.014Z,84.62
2023-12-20T18:50:53.684Z,84.84
2023-12-20T18:53:21.259Z,85.54
2023-12-20T18:55:50.222Z,85.72
2023-12-20T18:58:17.834Z,85.29
2023-12-20T19:00:45.497Z,85.38
2023-12-20T19:03:13.063Z,86.11
2023-12-20T19:05:40.661Z,86.38
2023-12-20T19:08:09.690Z,85.61
2023-12-20T19:10:37.288Z,86.63
2023-12-20T19:13:06.812Z,87.17
2023-12-20T19:15:34.405Z,87.44
2023-12-20T19:18:02.133Z,88.22
2023-12-20T19:20:29.775Z,88.64
2023-12-20T19:22:57.414Z,89.35
2023-12-20T19:25:25.013Z,89.57
2023-12-20T19:27:52.756Z,89.61
2023-12-20T19:30:21.721Z,89.80
2023-12-20T19:32:49.333Z,90.85
2023-12-20T19:35:17.129Z,90.29
2023-12-20T19:37:45.229Z,90.17
2023-12-20T19:40:13.323Z,91.05
2023-12-20T19:42:41.044Z,91.36
2023-12-20T19:45:10.947Z,91.86
2023-12-20T19:47:39.945Z,92.05
2023-12-20T19:50:08.450Z,91.61
2023-12-20T19:52:36.180Z,92.18
2023-12-20T19:55:04.214Z,92.30
2023-12-20T19:57:32.597Z,93.04
2023-12-20T20:00:00.267Z,92.81
2023-12-20T20:02:27.960Z,93.53
2023-12-20T20:04:57.164Z,93.24
2023-12-20T20:07:26.290Z,93.75
2023-12-20T20:09:53.951Z,92.92
2023-12-20T20:12:21.582Z,93.74
2023-12-20T20:14:49.144Z,93.49
2023-12-20T20:17:16.813Z,93.13
2023-12-20T20:19:44.412Z,93.95
2023-12-20T20:22:13.608Z,94.41
2023-12-20T20:24:41.848Z,94.51
2023-12-20T20:27:09.802Z,94.14
2023-12-20T20:29:37.490Z,92.99
2023-12-20T20:32:05.979Z,93.96
2023-12-20T20:34:33.642Z,93.34
2023-12-20T20:37:02.114Z,93.69
2023-12-20T20:39:31.052Z,93.48
2023-12-20T20:41:58.684Z,93.44
2023-12-20T20:44:26.384Z,94.16
2023-12-20T20:46:54.003Z,93.93
2023-12-20T20:49:22.121Z,94.31
2023-12-20T20:51:50.057Z,94.04
2023-12-20T20:54:19.154Z,94.33
2023-12-20T20:56:48.630Z,94.39
2023-12-20T20:59:16.280Z,94.63
2023-12-20T21:01:45.009Z,94.31
2023-12-20T21:04:13.626Z,94.70
2023-12-20T21:06:41.642Z,94.94
2023-12-20T21:09:10.507Z,95.09
2023-12-20T21:11:38.131Z,94.93
2023-12-20T21:14:07.051Z,95.41
2023-12-20T21:16:34.833Z,94.98
2023-12-20T21:19:05.354Z,95.35
2023-12-20T21:21:34.610Z,95.01
2023-12-20T21:24:02.194Z,95.44
2023-12-20T21:26:29.840Z,95.23
2023-12-20T21:28:57.577Z,94.54
2023-12-20T21:31:26.659Z,94.95
2023-12-20T21:33:55.922Z,95.08
2023-12-20T21:36:23.688Z,94.96
2023-12-20T21:38:51.472Z,94.96
2023-12-20T21:41:23.406Z,95.41
2023-12-20T21:43:52.381Z,95.44
2023-12-20T21:46:20.153Z,95.26
2023-12-20T21:48:49.168Z,94.73
2023-12-20T21:51:18.698Z,94.95
2023-12-20T21:53:46.279Z,95.35
2023-12-20T21:56:13.950Z,95.45
2023-12-20T21:58:42.039Z,95.12
2023-12-20T22:01:09.794Z,93.54
2023-12-20T22:03:40.438Z,95.02
2023-12-20T22:06:10.571Z,95.14
2023-12-20T22:08:38.203Z,94.83
2023-12-20T22:11:05.946Z,94.56
2023-12-20T22:13:34.136Z,95.41
2023-12-20T22:16:01.916Z,94.75
2023-12-20T22:18:29.648Z,94.65
2023-12-20T22:20:57.225Z,94.92
2023-12-20T22:23:26.186Z,95.29
2023-12-20T22:25:53.894Z,95.15
2023-12-20T22:28:21.675Z,95.93
2023-12-20T22:30:49.609Z,95.42
2023-12-20T22:33:19.028Z,95.54
2023-12-20T22:35:47.137Z,95.25
2023-12-20T22:38:14.806Z,95.72
2023-12-20T22:40:44.035Z,95.31
2023-12-20T22:43:11.676Z,95.22
2023-12-20T22:45:41.450Z,95.12
2023-12-20T22:48:09.649Z,94.79
2023-12-20T22:50:37.329Z,94.92
2023-12-20T22:53:05.161Z,94.68
2023-12-20T22:55:32.801Z,95.31
2023-12-20T22:58:01.857Z,95.53
2023-12-20T23:00:29.457Z,95.78
2023-12-20T23:02:57.412Z,94.99
2023-12-20T23:05:25.001Z,94.35
2023-12-20T23:07:53.150Z,95.05
2023-12-20T23:10:25.503Z,94.52
2023-12-20T23:12:53.202Z,94.99
2023-12-20T23:15:22.215Z,95.50
2023-12-20T23:17:50.247Z,95.03
2023-12-20T23:20:18.198Z,95.49
2023-12-20T23:22:45.853Z,94.99
2023-12-20T23:25:13.497Z,94.77
2023-12-20T23:27:44.028Z,94.97
2023-12-20T23:30:12.551Z,94.97
2023-12-20T23:32:41.624Z,95.29
2023-12-20T23:35:15.839Z,95.25
2023-12-20T23:37:44.854Z,95.46
2023-12-20T23:40:13.391Z,94.63
2023-12-20T23:42:41.022Z,94.55
2023-12-20T23:45:09.580Z,94.47
2023-12-20T23:47:37.243Z,94.05
2023-12-20T23:50:07.087Z,93.36
2023-12-20T23:52:34.839Z,93.91
2023-12-20T23:55:02.640Z,94.42
2023-12-20T23:57:30.238Z,94.72
2023-12-20T23:59:57.828Z,94.28
